Pierce City, MO

6:33 PM CST on December 27, 2014 (GMT -0600)
Monett | Change Station
CLOSE
Current Station
Airport
Location: Monett,
Elevation: 1316 ft
Nearby Weather Stations

Elev 1316 ft 36.91 °N, 94.01 °W | Updated 18 minutes ago

Overcast
Overcast
30 °F
Feels Like 23 °F
N
7
Wind Variable Wind from NW

Today
High -- | Low -- °F
--% Chance of Precip.
Yesterday
High -- | Low -- °F
Precip. -- in
7:27 AM 5:06 PM
Waxing Crescent, 41% visible
Pressure 30.23 in
Visibility 10.0 miles
Clouds Overcast 1300 ft
Windchill 23 °F
Dew Point 28 °F
Humidity 93%
Rainfall 0.21 in
Snow Depth Not available.
UV 0 out of 12
Pollen 2.80 out of 12
Air Quality Not available.
Flu Activity Not available.
METAR KHFJ 280015Z AUTO 32006KT 10SM OVC013 M01/M02 A3023 RMK AO2

More Conditions Fewer Conditions

Pressure 30.23 in
Visibility 10.0 miles
Clouds Overcast 1300 ft
Windchill 23 °F
Dew Point 28 °F
Humidity 93%
Rainfall 0.21 in
Snow Depth Not available.
UV 0 out of 12
Pollen 2.80 out of 12
Air Quality Not available.
Flu Activity Not available.
METAR KHFJ 280015Z AUTO 32006KT 10SM OVC013 M01/M02 A3023 RMK AO2

More Conditions Fewer Conditions

10-Day Weather Forecast

Almanac

Astronomy

Dec. 27, 2014 Rise Set
Actual Time
Civil Twilight
Nautical Twilight
Astronomical Twilight
Moon
Length of Visible Light
Length of Day
Tomorrow will be .
, % of the Moon is Illuminated

Today's Extremes

State Highs State Lows

Community

WunderPhotos

Upload Photos

1,781,116 photos uploaded!

WunderBlogs® & News

Nearby

Air Quality

  Air Quality AQ Index Pollutant
Not available.

Snow Depth

Station Depth Elevation

Earthquake Activity

City Distance Mag. Time & Date
Minimum magnitude displayed is 2.5.

Coastal Water Temperatures

Place Temperature

Nearby Weather Stations